createdAt,value
2022-09-23T00:01:11.398Z,80.79
2022-09-23T00:03:42.868Z,80.43
2022-09-23T00:06:18.241Z,80.43
2022-09-23T00:08:50.099Z,80.08
2022-09-23T00:11:25.321Z,80.24
2022-09-23T00:13:57.633Z,80.59
2022-09-23T00:16:32.639Z,80.54
2022-09-23T00:19:00.838Z,80.32
2022-09-23T00:21:27.395Z,81.00
2022-09-23T00:23:53.969Z,80.71
2022-09-23T00:26:22.387Z,80.76
2022-09-23T00:28:52.949Z,81.01
2022-09-23T00:31:23.340Z,80.77
2022-09-23T00:33:57.751Z,80.52
2022-09-23T00:36:26.126Z,80.41
2022-09-23T00:38:53.844Z,80.22
2022-09-23T00:41:21.324Z,80.05
2022-09-23T00:43:54.401Z,80.97
2022-09-23T00:46:28.029Z,80.72
2022-09-23T00:49:06.470Z,81.10
2022-09-23T00:51:37.714Z,80.72
2022-09-23T00:54:05.399Z,80.68
2022-09-23T00:56:33.356Z,80.99
2022-09-23T00:59:01.056Z,81.52
2022-09-23T01:01:27.690Z,81.43
2022-09-23T01:03:57.133Z,80.90
2022-09-23T01:06:23.633Z,81.27
2022-09-23T01:08:50.700Z,80.81
2022-09-23T01:11:38.995Z,81.39
2022-09-23T01:14:40.428Z,81.49
2022-09-23T01:17:14.898Z,81.55
2022-09-23T01:19:59.492Z,81.83
2022-09-23T01:22:39.413Z,81.38
2022-09-23T01:25:33.552Z,81.62
2022-09-23T01:28:33.916Z,81.89
2022-09-23T01:31:32.434Z,81.86
2022-09-23T01:34:09.762Z,82.46
2022-09-23T01:36:42.441Z,82.52
2022-09-23T01:39:17.001Z,82.51
2022-09-23T01:42:13.394Z,82.52
2022-09-23T01:44:50.381Z,82.55
2022-09-23T01:47:26.491Z,83.13
2022-09-23T01:50:30.969Z,82.46
2022-09-23T01:53:12.876Z,82.85
2022-09-23T01:55:50.058Z,82.79
2022-09-23T01:58:49.350Z,82.34
2022-09-23T02:01:26.129Z,82.57
2022-09-23T02:04:17.465Z,82.74
2022-09-23T02:07:03.134Z,82.99
2022-09-23T02:09:37.552Z,83.17
2022-09-23T02:12:12.543Z,83.07
2022-09-23T02:14:46.704Z,82.71
2022-09-23T02:17:18.018Z,82.53
2022-09-23T02:19:53.735Z,83.17
2022-09-23T02:22:25.929Z,83.17
2022-09-23T02:24:54.633Z,83.24
2022-09-23T02:27:36.661Z,82.82
2022-09-23T02:30:20.403Z,82.74
2022-09-23T02:33:15.353Z,82.70
2022-09-23T02:35:44.722Z,82.98
2022-09-23T02:38:34.998Z,82.79
2022-09-23T02:41:04.687Z,82.89
2022-09-23T02:43:36.245Z,82.90
2022-09-23T02:46:04.811Z,83.31
2022-09-23T02:48:56.801Z,82.98
2022-09-23T02:51:27.920Z,82.89
2022-09-23T02:53:57.127Z,82.99
2022-09-23T02:56:24.349Z,82.97
2022-09-23T02:58:55.057Z,83.15
2022-09-23T03:01:40.129Z,83.17
2022-09-23T03:04:26.561Z,82.76
2022-09-23T03:07:10.957Z,83.26
2022-09-23T03:09:57.280Z,83.76
2022-09-23T03:12:38.315Z,83.34
2022-09-23T03:15:14.433Z,83.41
2022-09-23T03:17:57.482Z,82.92
2022-09-23T03:20:39.174Z,82.97
2022-09-23T03:23:12.438Z,83.08
2022-09-23T03:25:42.856Z,82.96
2022-09-23T03:28:10.915Z,83.18
2022-09-23T03:30:38.229Z,83.27
2022-09-23T03:33:09.242Z,83.15
2022-09-23T03:36:01.660Z,82.87
2022-09-23T03:38:34.058Z,82.99
2022-09-23T03:41:04.150Z,83.59
2022-09-23T03:43:31.479Z,83.42
2022-09-23T03:45:59.535Z,83.22
2022-09-23T03:48:26.235Z,83.21
2022-09-23T03:50:52.807Z,82.79
2022-09-23T03:53:20.986Z,83.19
2022-09-23T03:55:47.866Z,82.95
2022-09-23T03:58:14.471Z,83.25
2022-09-23T04:00:40.986Z,82.97
2022-09-23T04:03:11.590Z,83.08
2022-09-23T04:05:38.420Z,83.34
2022-09-23T04:08:04.817Z,83.67
2022-09-23T04:10:31.418Z,83.33
2022-09-23T04:12:57.841Z,83.77
2022-09-23T04:15:24.474Z,83.69
2022-09-23T04:17:51.200Z,83.56
2022-09-23T04:20:21.385Z,83.58
2022-09-23T04:22:47.851Z,83.01
2022-09-23T04:25:15.691Z,83.34
2022-09-23T04:27:42.273Z,83.55
2022-09-23T04:30:09.197Z,83.45
2022-09-23T04:32:35.631Z,83.94
2022-09-23T04:35:02.162Z,83.32
2022-09-23T04:37:29.410Z,82.58
2022-09-23T04:39:56.531Z,82.59
2022-09-23T04:42:23.075Z,82.37
2022-09-23T04:44:49.574Z,82.14
2022-09-23T04:47:16.081Z,82.12
2022-09-23T04:49:42.683Z,82.29
2022-09-23T04:52:09.062Z,81.76
2022-09-23T04:54:35.568Z,81.23
2022-09-23T04:57:01.961Z,81.63
2022-09-23T04:59:28.569Z,80.99
2022-09-23T05:01:55.373Z,80.58
2022-09-23T05:04:22.824Z,79.96
2022-09-23T05:06:49.398Z,79.69
2022-09-23T05:09:17.350Z,79.10
2022-09-23T05:11:45.816Z,79.18
2022-09-23T05:14:12.264Z,78.98
2022-09-23T05:16:38.742Z,79.12
2022-09-23T05:19:05.455Z,78.80
2022-09-23T05:21:32.201Z,78.92
2022-09-23T05:24:00.651Z,78.99
2022-09-23T05:26:30.583Z,78.64
2022-09-23T05:28:57.330Z,77.70
2022-09-23T05:31:29.270Z,77.59
2022-09-23T05:33:58.390Z,77.73
2022-09-23T05:36:26.356Z,79.16
2022-09-23T05:38:53.484Z,80.05
2022-09-23T05:41:23.032Z,78.70
2022-09-23T05:43:53.910Z,77.97
2022-09-23T05:46:26.229Z,78.89
2022-09-23T05:48:52.761Z,80.17
2022-09-23T05:51:21.681Z,79.55
2022-09-23T05:53:52.531Z,77.61
2022-09-23T05:56:22.762Z,78.40
2022-09-23T05:58:53.727Z,77.59
2022-09-23T06:01:25.492Z,77.10
2022-09-23T06:03:53.786Z,77.48
2022-09-23T06:06:28.339Z,76.71
2022-09-23T06:08:54.778Z,76.93
2022-09-23T06:11:21.452Z,77.31
2022-09-23T06:13:48.603Z,77.91
2022-09-23T06:16:25.133Z,77.85
2022-09-23T06:18:51.963Z,76.79
2022-09-23T06:21:21.366Z,77.73
2022-09-23T06:23:48.023Z,77.33
2022-09-23T06:26:15.781Z,78.32
2022-09-23T06:28:44.070Z,77.95
2022-09-23T06:31:15.467Z,77.63
2022-09-23T06:33:43.392Z,77.25
2022-09-23T06:36:11.544Z,76.71
2022-09-23T06:38:41.843Z,76.61
2022-09-23T06:41:08.275Z,76.45
2022-09-23T06:43:34.876Z,75.96
2022-09-23T06:46:03.874Z,75.90
2022-09-23T06:48:35.153Z,76.61
2022-09-23T06:51:04.125Z,76.41
2022-09-23T06:53:34.883Z,76.04
2022-09-23T06:56:04.124Z,75.76
2022-09-23T06:58:32.256Z,76.16
2022-09-23T07:01:03.317Z,76.50
2022-09-23T07:03:31.678Z,76.69
2022-09-23T07:05:58.798Z,76.18
2022-09-23T07:08:27.245Z,76.55
2022-09-23T07:10:54.705Z,75.74
2022-09-23T07:13:21.604Z,75.99
2022-09-23T07:15:51.876Z,76.03
2022-09-23T07:18:22.069Z,75.55
2022-09-23T07:20:50.733Z,75.74
2022-09-23T07:23:20.068Z,75.45
2022-09-23T07:25:50.280Z,75.94
2022-09-23T07:28:17.070Z,76.46
2022-09-23T07:30:58.423Z,76.20
2022-09-23T07:33:32.303Z,76.60
2022-09-23T07:35:59.403Z,76.06
2022-09-23T07:38:30.417Z,76.03
2022-09-23T07:41:02.519Z,75.68
2022-09-23T07:43:31.836Z,75.52
2022-09-23T07:46:04.246Z,76.87
2022-09-23T07:48:34.272Z,77.06
2022-09-23T07:51:06.386Z,75.07
2022-09-23T07:53:33.309Z,75.15
2022-09-23T07:55:59.814Z,75.61
2022-09-23T07:58:26.322Z,74.71
2022-09-23T08:00:53.613Z,74.16
2022-09-23T08:03:20.762Z,73.62
2022-09-23T08:05:47.418Z,74.77
2022-09-23T08:08:14.100Z,75.10
2022-09-23T08:10:40.603Z,75.86
2022-09-23T08:13:07.061Z,77.78
2022-09-23T08:15:33.671Z,74.19
2022-09-23T08:18:00.447Z,73.34
2022-09-23T08:20:47.723Z,73.32
2022-09-23T08:23:20.443Z,73.34
2022-09-23T08:25:47.620Z,72.31
2022-09-23T08:28:21.754Z,73.57
2022-09-23T08:30:49.081Z,72.43
2022-09-23T08:33:20.912Z,72.88
2022-09-23T08:35:52.890Z,72.00
2022-09-23T08:38:20.342Z,71.73
2022-09-23T08:40:50.564Z,73.59
2022-09-23T08:43:29.427Z,72.39
2022-09-23T08:46:00.235Z,72.41
2022-09-23T08:48:50.227Z,72.40
2022-09-23T08:51:29.350Z,72.54
2022-09-23T08:53:56.008Z,72.45
2022-09-23T08:56:24.046Z,73.42
2022-09-23T08:59:09.304Z,73.24
2022-09-23T09:01:53.566Z,73.45
2022-09-23T09:04:27.737Z,73.86
2022-09-23T09:07:24.610Z,74.34
2022-09-23T09:09:54.334Z,76.76
2022-09-23T09:12:29.263Z,77.42
2022-09-23T09:15:12.683Z,75.26
2022-09-23T09:17:49.509Z,73.54
2022-09-23T09:20:18.997Z,74.57
2022-09-23T09:23:01.981Z,73.86
2022-09-23T09:25:50.246Z,73.88
2022-09-23T09:28:35.848Z,73.56
2022-09-23T09:31:37.895Z,76.53
2022-09-23T09:34:22.257Z,74.78
2022-09-23T09:37:07.192Z,72.79
2022-09-23T09:39:36.881Z,73.53
2022-09-23T09:42:07.082Z,74.02
2022-09-23T09:44:42.283Z,74.08
2022-09-23T09:47:40.717Z,74.12
2022-09-23T09:50:09.462Z,74.41
2022-09-23T09:52:42.802Z,74.33
2022-09-23T09:55:12.591Z,73.42
2022-09-23T09:57:46.296Z,74.49
2022-09-23T10:00:21.774Z,74.23
2022-09-23T10:02:58.997Z,72.72
2022-09-23T10:05:29.853Z,72.97
2022-09-23T10:07:56.841Z,72.80
2022-09-23T10:10:33.679Z,72.09
2022-09-23T10:13:14.591Z,72.23
2022-09-23T10:15:44.952Z,72.64
2022-09-23T10:18:20.798Z,72.52
2022-09-23T10:20:48.082Z,73.44
2022-09-23T10:23:26.978Z,72.94
2022-09-23T10:26:06.215Z,74.75
2022-09-23T10:29:01.749Z,74.17
2022-09-23T10:31:34.369Z,73.55
2022-09-23T10:34:03.472Z,72.15
2022-09-23T10:36:33.243Z,71.85
2022-09-23T10:39:23.889Z,71.13
2022-09-23T10:42:45.501Z,70.06
2022-09-23T10:45:39.747Z,72.19
2022-09-23T10:48:45.432Z,71.25
2022-09-23T10:51:35.221Z,71.67
2022-09-23T10:54:20.344Z,70.89
2022-09-23T10:57:00.187Z,70.88
2022-09-23T10:59:50.178Z,70.92
2022-09-23T11:02:22.757Z,69.60
2022-09-23T11:05:04.741Z,70.66
2022-09-23T11:07:51.223Z,70.20
2022-09-23T11:10:45.576Z,70.25
2022-09-23T11:13:43.086Z,69.53
2022-09-23T11:16:31.924Z,70.16
2022-09-23T11:19:21.867Z,70.29
2022-09-23T11:22:03.572Z,69.91
2022-09-23T11:24:58.000Z,70.10
2022-09-23T11:27:54.194Z,71.03
2022-09-23T11:30:21.453Z,70.83
2022-09-23T11:33:14.226Z,71.01
2022-09-23T11:35:59.121Z,70.87
2022-09-23T11:38:31.708Z,70.14
2022-09-23T11:41:03.880Z,70.02
2022-09-23T11:43:36.466Z,70.87
2022-09-23T11:46:10.334Z,71.81
2022-09-23T11:48:50.507Z,70.77
2022-09-23T11:51:21.404Z,70.53
2022-09-23T11:53:54.607Z,71.06
2022-09-23T11:56:48.629Z,70.55
2022-09-23T11:59:50.282Z,70.75
2022-09-23T12:02:31.041Z,70.22
2022-09-23T12:05:03.734Z,70.34
2022-09-23T12:07:52.928Z,69.76
2022-09-23T12:10:21.226Z,69.78
2022-09-23T12:13:00.880Z,70.09
2022-09-23T12:15:51.181Z,70.60
2022-09-23T12:18:38.313Z,71.70
2022-09-23T12:21:45.724Z,70.40
2022-09-23T12:24:26.737Z,70.07
2022-09-23T12:26:58.913Z,69.50
2022-09-23T12:29:30.441Z,68.28
2022-09-23T12:31:56.889Z,68.64
2022-09-23T12:34:30.409Z,68.82
2022-09-23T12:37:06.449Z,69.02
2022-09-23T12:39:37.174Z,69.96
2022-09-23T12:42:06.547Z,68.34
2022-09-23T12:44:41.493Z,68.06
2022-09-23T12:47:28.154Z,68.82
2022-09-23T12:49:56.485Z,67.37
2022-09-23T12:52:25.030Z,68.75
2022-09-23T12:54:56.357Z,67.23
2022-09-23T12:57:34.970Z,67.77
2022-09-23T13:00:12.958Z,67.97
2022-09-23T13:02:41.396Z,67.89
2022-09-23T13:05:26.500Z,68.40
2022-09-23T13:08:00.459Z,68.23
2022-09-23T13:10:33.838Z,69.10
2022-09-23T13:13:02.497Z,68.81
2022-09-23T13:15:38.655Z,69.49
2022-09-23T13:18:20.518Z,68.68
2022-09-23T13:20:51.257Z,69.72
2022-09-23T13:23:35.916Z,69.16
2022-09-23T13:26:12.619Z,67.79
2022-09-23T13:28:57.193Z,67.64
2022-09-23T13:31:23.975Z,67.53
2022-09-23T13:33:59.678Z,67.34
2022-09-23T13:36:29.289Z,67.46
2022-09-23T13:39:15.219Z,66.58
2022-09-23T13:41:44.138Z,67.35
2022-09-23T13:44:20.704Z,68.05
2022-09-23T13:46:58.025Z,68.92
2022-09-23T13:49:28.365Z,68.24
2022-09-23T13:51:56.446Z,68.08
2022-09-23T13:54:50.673Z,67.38
2022-09-23T13:57:26.431Z,66.91
2022-09-23T13:59:53.649Z,67.32
2022-09-23T14:02:25.832Z,68.96
2022-09-23T14:04:52.743Z,68.99
2022-09-23T14:07:20.626Z,68.82
2022-09-23T14:09:50.172Z,67.84
2022-09-23T14:12:22.178Z,67.84
2022-09-23T14:14:51.599Z,69.13
2022-09-23T14:17:24.138Z,69.74
2022-09-23T14:19:51.437Z,70.54
2022-09-23T14:22:27.003Z,69.48
2022-09-23T14:24:56.036Z,69.65
2022-09-23T14:27:33.766Z,70.21
2022-09-23T14:30:02.631Z,69.63
2022-09-23T14:32:30.252Z,70.31
2022-09-23T14:34:59.930Z,72.24
2022-09-23T14:37:52.963Z,70.79
2022-09-23T14:40:32.480Z,70.82
2022-09-23T14:43:18.016Z,72.96
2022-09-23T14:45:50.558Z,74.24
2022-09-23T14:48:22.977Z,75.11
2022-09-23T14:50:58.691Z,74.29
2022-09-23T14:53:40.656Z,73.13
2022-09-23T14:56:07.100Z,73.17
2022-09-23T14:58:52.010Z,74.54
2022-09-23T15:01:39.310Z,75.54
2022-09-23T15:04:35.596Z,75.63
2022-09-23T15:07:09.460Z,76.24
2022-09-23T15:09:39.346Z,75.70
2022-09-23T15:12:11.825Z,77.00
2022-09-23T15:14:46.506Z,77.12
2022-09-23T15:17:34.969Z,77.03
2022-09-23T15:20:34.736Z,76.88
2022-09-23T15:23:01.672Z,76.16
2022-09-23T15:25:40.761Z,77.80
2022-09-23T15:28:13.040Z,78.84
2022-09-23T15:30:39.623Z,77.25
2022-09-23T15:33:06.541Z,77.90
2022-09-23T15:35:33.280Z,78.74
2022-09-23T15:38:01.894Z,78.88
2022-09-23T15:40:34.002Z,78.82
2022-09-23T15:43:07.486Z,78.00
2022-09-23T15:45:37.031Z,78.95
2022-09-23T15:48:18.150Z,79.84
2022-09-23T15:50:46.605Z,81.37
2022-09-23T15:53:15.666Z,80.23
2022-09-23T15:55:42.160Z,80.21
2022-09-23T15:58:08.774Z,80.66
2022-09-23T16:00:36.481Z,82.56
2022-09-23T16:03:04.239Z,82.30
2022-09-23T16:05:36.719Z,82.49
2022-09-23T16:08:09.693Z,82.76
2022-09-23T16:10:37.714Z,83.46
2022-09-23T16:13:08.484Z,84.43
2022-09-23T16:15:35.191Z,84.71
2022-09-23T16:18:01.718Z,85.27
2022-09-23T16:20:30.187Z,85.21
2022-09-23T16:23:01.271Z,84.92
2022-09-23T16:25:31.623Z,86.18
2022-09-23T16:27:58.461Z,86.49
2022-09-23T16:30:29.659Z,86.37
2022-09-23T16:32:57.028Z,86.54
2022-09-23T16:35:25.915Z,86.51
2022-09-23T16:37:52.863Z,86.68
2022-09-23T16:40:21.599Z,86.42
2022-09-23T16:42:49.844Z,86.76
2022-09-23T16:45:18.248Z,86.52
2022-09-23T16:47:46.481Z,86.67
2022-09-23T16:50:14.373Z,86.48
2022-09-23T16:52:41.880Z,86.57
2022-09-23T16:55:10.301Z,87.01
2022-09-23T16:57:38.269Z,86.91
2022-09-23T17:00:24.572Z,87.08
2022-09-23T17:03:11.973Z,87.15
2022-09-23T17:05:38.441Z,87.64
2022-09-23T17:08:05.726Z,87.86
2022-09-23T17:10:32.940Z,88.22
2022-09-23T17:13:00.269Z,87.97
2022-09-23T17:15:26.861Z,88.30
2022-09-23T17:17:53.232Z,88.76
2022-09-23T17:20:22.772Z,88.45
2022-09-23T17:22:51.998Z,88.79
2022-09-23T17:25:20.869Z,89.03
2022-09-23T17:27:48.789Z,89.29
2022-09-23T17:34:21.109Z,89.54
2022-09-23T17:36:47.534Z,90.11
2022-09-23T17:39:14.111Z,90.13
2022-09-23T17:41:40.691Z,90.34
2022-09-23T17:44:10.961Z,90.87
2022-09-23T17:46:37.369Z,90.90
2022-09-23T17:49:04.040Z,91.63
2022-09-23T17:51:31.175Z,92.13
2022-09-23T17:53:57.778Z,92.43
2022-09-23T17:56:26.193Z,92.55
2022-09-23T17:58:53.860Z,92.39
2022-09-23T18:01:22.749Z,92.20
2022-09-23T18:03:55.008Z,91.57
2022-09-23T18:06:23.164Z,91.23
2022-09-23T18:08:53.201Z,90.94
2022-09-23T18:11:27.971Z,91.37
2022-09-23T18:13:59.955Z,91.29
2022-09-23T18:16:33.953Z,91.74
2022-09-23T18:19:02.002Z,92.32
2022-09-23T18:21:30.154Z,92.06
2022-09-23T18:24:21.290Z,92.20
2022-09-23T18:26:45.055Z,92.30
2022-09-23T18:29:11.603Z,92.28
2022-09-23T18:31:38.905Z,91.96
2022-09-23T18:34:11.050Z,91.75
2022-09-23T18:36:37.870Z,91.82
2022-09-23T18:39:05.051Z,91.24
2022-09-23T18:41:31.516Z,91.16
2022-09-23T18:43:58.164Z,91.16
2022-09-23T18:46:28.729Z,91.62
2022-09-23T18:49:14.346Z,91.79
2022-09-23T18:51:52.496Z,91.68
2022-09-23T18:54:19.976Z,91.77
2022-09-23T18:56:47.042Z,91.99
2022-09-23T18:59:20.391Z,91.62
2022-09-23T19:01:50.057Z,91.96
2022-09-23T19:04:22.528Z,92.14
2022-09-23T19:06:52.058Z,92.12
2022-09-23T19:09:20.638Z,91.86
2022-09-23T19:11:52.011Z,91.72
2022-09-23T19:14:20.798Z,91.75
2022-09-23T19:16:49.241Z,91.96
2022-09-23T19:19:16.048Z,91.87
2022-09-23T19:21:43.068Z,91.93
2022-09-23T19:24:14.321Z,91.94
2022-09-23T19:26:41.310Z,92.31
2022-09-23T19:29:13.000Z,92.19
2022-09-23T19:31:43.524Z,92.51
2022-09-23T19:34:15.663Z,92.94
2022-09-23T19:36:44.488Z,93.19
2022-09-23T19:39:20.925Z,93.30
2022-09-23T19:41:50.701Z,93.47
2022-09-23T19:44:17.378Z,93.23
2022-09-23T19:46:45.542Z,93.69
2022-09-23T19:49:12.847Z,93.71
2022-09-23T19:51:40.110Z,93.89
2022-09-23T19:54:07.915Z,93.50
2022-09-23T19:56:35.395Z,93.56
2022-09-23T19:59:04.540Z,93.03
2022-09-23T20:01:32.076Z,93.08
2022-09-23T20:03:59.560Z,93.01
2022-09-23T20:06:30.296Z,93.10
2022-09-23T20:08:58.692Z,93.11
2022-09-23T20:11:28.556Z,93.33
2022-09-23T20:14:01.344Z,93.61
2022-09-23T20:16:32.120Z,93.57
2022-09-23T20:19:00.141Z,93.63
2022-09-23T20:21:28.378Z,93.88
2022-09-23T20:23:55.732Z,94.33
2022-09-23T20:26:40.953Z,94.22
2022-09-23T20:29:08.832Z,93.89
2022-09-23T20:31:35.571Z,93.95
2022-09-23T20:34:05.488Z,92.53
2022-09-23T20:36:33.208Z,91.79
2022-09-23T20:39:02.741Z,91.14
2022-09-23T20:41:31.232Z,90.74
2022-09-23T20:44:01.283Z,91.56
2022-09-23T20:46:28.778Z,91.31
2022-09-23T20:48:56.593Z,91.44
2022-09-23T20:51:24.623Z,91.79
2022-09-23T20:53:52.633Z,91.87
2022-09-23T20:56:20.600Z,92.52
2022-09-23T20:58:51.004Z,92.91
2022-09-23T21:01:18.223Z,92.99
2022-09-23T21:03:47.340Z,92.97
2022-09-23T21:06:15.809Z,93.28
2022-09-23T21:08:44.194Z,93.08
2022-09-23T21:11:13.279Z,93.07
2022-09-23T21:13:39.753Z,93.25
2022-09-23T21:16:09.665Z,92.54
2022-09-23T21:18:37.266Z,93.21
2022-09-23T21:21:05.115Z,93.42
2022-09-23T21:23:34.122Z,93.44
2022-09-23T21:26:09.482Z,93.39
2022-09-23T21:28:37.893Z,93.34
2022-09-23T21:31:07.765Z,93.58
2022-09-23T21:33:36.607Z,92.75
2022-09-23T21:36:04.618Z,92.49
2022-09-23T21:38:34.644Z,92.96
2022-09-23T21:41:02.830Z,92.95
2022-09-23T21:43:33.550Z,92.64
2022-09-23T21:46:02.689Z,92.99
2022-09-23T21:48:31.037Z,93.04
2022-09-23T21:50:59.865Z,93.03
2022-09-23T21:53:29.531Z,92.99
2022-09-23T21:56:18.062Z,93.17
2022-09-23T21:58:47.080Z,93.33
2022-09-23T22:01:20.021Z,93.18
2022-09-23T22:03:55.069Z,93.12
2022-09-23T22:06:27.409Z,93.16
2022-09-23T22:08:58.968Z,93.46
2022-09-23T22:11:46.678Z,93.67
2022-09-23T22:14:14.715Z,93.84
2022-09-23T22:16:41.703Z,94.00
2022-09-23T22:19:09.250Z,94.02
2022-09-23T22:21:38.139Z,94.03
2022-09-23T22:24:08.111Z,94.35
2022-09-23T22:26:36.730Z,94.48
2022-09-23T22:29:22.834Z,94.53
2022-09-23T22:32:07.861Z,94.63
2022-09-23T22:34:51.649Z,94.80
2022-09-23T22:37:21.465Z,94.63
2022-09-23T22:39:48.024Z,94.68
2022-09-23T22:42:14.600Z,94.80
2022-09-23T22:44:41.105Z,94.50
2022-09-23T22:47:09.161Z,94.56
2022-09-23T22:49:35.544Z,94.37
2022-09-23T22:52:04.041Z,94.33
2022-09-23T22:54:33.951Z,94.76
2022-09-23T22:57:03.116Z,94.61
2022-09-23T22:59:29.609Z,95.12
2022-09-23T23:01:56.077Z,94.78
2022-09-23T23:04:22.771Z,94.65
2022-09-23T23:06:49.419Z,94.65
2022-09-23T23:09:18.146Z,94.85
2022-09-23T23:11:45.302Z,94.71
2022-09-23T23:14:14.207Z,95.10
2022-09-23T23:16:40.883Z,95.25
2022-09-23T23:19:11.992Z,95.64
2022-09-23T23:21:38.509Z,95.29
2022-09-23T23:24:05.807Z,95.46
2022-09-23T23:26:34.181Z,95.16
2022-09-23T23:29:01.531Z,95.52
2022-09-23T23:31:29.325Z,95.52
2022-09-23T23:33:55.786Z,95.54
2022-09-23T23:36:23.453Z,95.70
2022-09-23T23:38:51.670Z,95.72
2022-09-23T23:41:22.778Z,95.79
2022-09-23T23:43:55.258Z,96.02
2022-09-23T23:46:26.335Z,95.99
2022-09-23T23:48:54.353Z,96.28
2022-09-23T23:51:21.155Z,96.38
2022-09-23T23:53:49.862Z,96.83
2022-09-23T23:56:21.839Z,96.73
2022-09-23T23:58:53.777Z,96.88
